sensor_id;sensor_type;location;lat;lon;timestamp;P1;durP1;ratioP1;P2;durP2;ratioP2
21876;SDS011;11103;43.788;23.710;2022-09-24T00:00:52;5.27;;;4.77;;
21876;SDS011;11103;43.788;23.710;2022-09-24T00:03:21;8.97;;;4.87;;
21876;SDS011;11103;43.788;23.710;2022-09-24T00:05:49;5.57;;;5.03;;
21876;SDS011;11103;43.788;23.710;2022-09-24T00:08:15;6.07;;;4.53;;
21876;SDS011;11103;43.788;23.710;2022-09-24T00:10:42;5.80;;;4.93;;
21876;SDS011;11103;43.788;23.710;2022-09-24T00:13:10;5.83;;;5.27;;
21876;SDS011;11103;43.788;23.710;2022-09-24T00:15:37;5.37;;;4.87;;
21876;SDS011;11103;43.788;23.710;2022-09-24T00:18:04;5.77;;;4.87;;
21876;SDS011;11103;43.788;23.710;2022-09-24T00:20:32;5.90;;;4.93;;
21876;SDS011;11103;43.788;23.710;2022-09-24T00:22:59;6.57;;;5.20;;
21876;SDS011;11103;43.788;23.710;2022-09-24T00:25:27;5.73;;;5.13;;
21876;SDS011;11103;43.788;23.710;2022-09-24T00:28:11;9.20;;;5.40;;
21876;SDS011;11103;43.788;23.710;2022-09-24T00:30:38;5.90;;;4.80;;
21876;SDS011;11103;43.788;23.710;2022-09-24T00:33:05;6.40;;;5.33;;
21876;SDS011;11103;43.788;23.710;2022-09-24T00:35:33;5.57;;;5.07;;
21876;SDS011;11103;43.788;23.710;2022-09-24T00:38:01;5.47;;;4.97;;
21876;SDS011;11103;43.788;23.710;2022-09-24T00:40:27;5.53;;;4.97;;
21876;SDS011;11103;43.788;23.710;2022-09-24T00:42:56;6.33;;;4.87;;
21876;SDS011;11103;43.788;23.710;2022-09-24T00:45:22;6.27;;;5.20;;
21876;SDS011;11103;43.788;23.710;2022-09-24T00:47:49;7.10;;;5.93;;
21876;SDS011;11103;43.788;23.710;2022-09-24T00:53:09;5.50;;;5.00;;
21876;SDS011;11103;43.788;23.710;2022-09-24T00:55:38;6.23;;;5.07;;
21876;SDS011;11103;43.788;23.710;2022-09-24T00:58:08;6.20;;;5.13;;
21876;SDS011;11103;43.788;23.710;2022-09-24T01:00:35;6.43;;;5.17;;
21876;SDS011;11103;43.788;23.710;2022-09-24T01:03:07;7.30;;;5.53;;
21876;SDS011;11103;43.788;23.710;2022-09-24T01:05:35;7.50;;;4.80;;
21876;SDS011;11103;43.788;23.710;2022-09-24T01:08:02;8.83;;;5.57;;
21876;SDS011;11103;43.788;23.710;2022-09-24T01:13:30;6.27;;;5.07;;
21876;SDS011;11103;43.788;23.710;2022-09-24T01:21:53;5.50;;;4.90;;
21876;SDS011;11103;43.788;23.710;2022-09-24T01:27:05;5.20;;;4.70;;
21876;SDS011;11103;43.788;23.710;2022-09-24T01:32:21;7.17;;;5.97;;
21876;SDS011;11103;43.788;23.710;2022-09-24T01:35:14;6.17;;;5.57;;
21876;SDS011;11103;43.788;23.710;2022-09-24T01:37:55;7.60;;;5.10;;
21876;SDS011;11103;43.788;23.710;2022-09-24T01:40:24;5.67;;;4.97;;
21876;SDS011;11103;43.788;23.710;2022-09-24T01:42:52;5.90;;;5.30;;
21876;SDS011;11103;43.788;23.710;2022-09-24T01:45:20;6.77;;;5.27;;
21876;SDS011;11103;43.788;23.710;2022-09-24T01:47:46;7.30;;;5.90;;
21876;SDS011;11103;43.788;23.710;2022-09-24T01:50:13;6.50;;;5.60;;
21876;SDS011;11103;43.788;23.710;2022-09-24T01:52:51;6.90;;;5.47;;
21876;SDS011;11103;43.788;23.710;2022-09-24T01:55:21;6.10;;;5.50;;
21876;SDS011;11103;43.788;23.710;2022-09-24T01:58:24;5.97;;;5.37;;
21876;SDS011;11103;43.788;23.710;2022-09-24T02:00:46;6.37;;;5.70;;
21876;SDS011;11103;43.788;23.710;2022-09-24T02:03:16;6.40;;;5.03;;
21876;SDS011;11103;43.788;23.710;2022-09-24T02:08:25;5.80;;;5.20;;
21876;SDS011;11103;43.788;23.710;2022-09-24T02:11:03;6.67;;;5.33;;
21876;SDS011;11103;43.788;23.710;2022-09-24T02:17:09;6.83;;;5.60;;
21876;SDS011;11103;43.788;23.710;2022-09-24T02:19:37;6.30;;;5.17;;
21876;SDS011;11103;43.788;23.710;2022-09-24T02:22:05;7.90;;;5.60;;
21876;SDS011;11103;43.788;23.710;2022-09-24T02:26:58;6.03;;;5.43;;
21876;SDS011;11103;43.788;23.710;2022-09-24T02:29:25;6.87;;;5.77;;
21876;SDS011;11103;43.788;23.710;2022-09-24T02:31:51;6.90;;;5.60;;
21876;SDS011;11103;43.788;23.710;2022-09-24T02:34:21;5.57;;;5.07;;
21876;SDS011;11103;43.788;23.710;2022-09-24T02:36:56;6.70;;;5.93;;
21876;SDS011;11103;43.788;23.710;2022-09-24T02:39:23;7.17;;;5.93;;
21876;SDS011;11103;43.788;23.710;2022-09-24T02:41:50;6.47;;;5.77;;
21876;SDS011;11103;43.788;23.710;2022-09-24T02:44:17;6.70;;;5.30;;
21876;SDS011;11103;43.788;23.710;2022-09-24T02:46:43;6.87;;;5.97;;
21876;SDS011;11103;43.788;23.710;2022-09-24T02:49:10;5.83;;;5.07;;
21876;SDS011;11103;43.788;23.710;2022-09-24T02:51:36;5.97;;;5.43;;
21876;SDS011;11103;43.788;23.710;2022-09-24T02:54:05;6.03;;;5.10;;
21876;SDS011;11103;43.788;23.710;2022-09-24T02:56:30;6.30;;;5.70;;
21876;SDS011;11103;43.788;23.710;2022-09-24T02:58:56;5.87;;;5.10;;
21876;SDS011;11103;43.788;23.710;2022-09-24T03:01:22;5.67;;;4.60;;
21876;SDS011;11103;43.788;23.710;2022-09-24T03:03:48;5.50;;;5.00;;
21876;SDS011;11103;43.788;23.710;2022-09-24T03:06:14;5.47;;;4.97;;
21876;SDS011;11103;43.788;23.710;2022-09-24T03:08:40;6.50;;;5.80;;
21876;SDS011;11103;43.788;23.710;2022-09-24T03:11:07;10.60;;;5.60;;
21876;SDS011;11103;43.788;23.710;2022-09-24T03:13:33;5.93;;;5.37;;
21876;SDS011;11103;43.788;23.710;2022-09-24T03:15:58;7.40;;;5.47;;
21876;SDS011;11103;43.788;23.710;2022-09-24T03:18:23;6.80;;;5.30;;
21876;SDS011;11103;43.788;23.710;2022-09-24T03:21:08;6.27;;;5.50;;
21876;SDS011;11103;43.788;23.710;2022-09-24T03:23:35;8.73;;;5.60;;
21876;SDS011;11103;43.788;23.710;2022-09-24T03:26:02;5.57;;;5.07;;
21876;SDS011;11103;43.788;23.710;2022-09-24T03:31:20;6.10;;;5.50;;
21876;SDS011;11103;43.788;23.710;2022-09-24T03:33:48;8.87;;;5.50;;
21876;SDS011;11103;43.788;23.710;2022-09-24T03:36:21;5.53;;;4.97;;
21876;SDS011;11103;43.788;23.710;2022-09-24T03:38:49;6.40;;;5.10;;
21876;SDS011;11103;43.788;23.710;2022-09-24T03:41:15;7.50;;;5.23;;
21876;SDS011;11103;43.788;23.710;2022-09-24T03:43:42;8.67;;;5.33;;
21876;SDS011;11103;43.788;23.710;2022-09-24T03:46:08;11.93;;;5.20;;
21876;SDS011;11103;43.788;23.710;2022-09-24T03:48:35;6.73;;;5.30;;
21876;SDS011;11103;43.788;23.710;2022-09-24T03:51:03;6.33;;;5.60;;
21876;SDS011;11103;43.788;23.710;2022-09-24T03:53:33;6.13;;;5.53;;
21876;SDS011;11103;43.788;23.710;2022-09-24T03:55:59;6.07;;;5.47;;
21876;SDS011;11103;43.788;23.710;2022-09-24T03:58:26;8.87;;;5.70;;
21876;SDS011;11103;43.788;23.710;2022-09-24T04:00:54;5.73;;;5.17;;
21876;SDS011;11103;43.788;23.710;2022-09-24T04:03:20;6.37;;;5.73;;
21876;SDS011;11103;43.788;23.710;2022-09-24T04:05:46;7.00;;;5.27;;
21876;SDS011;11103;43.788;23.710;2022-09-24T04:08:13;6.33;;;5.60;;
21876;SDS011;11103;43.788;23.710;2022-09-24T04:10:38;6.47;;;5.87;;
21876;SDS011;11103;43.788;23.710;2022-09-24T04:13:03;6.07;;;5.47;;
21876;SDS011;11103;43.788;23.710;2022-09-24T04:15:29;5.67;;;5.03;;
21876;SDS011;11103;43.788;23.710;2022-09-24T04:17:56;6.20;;;5.40;;
21876;SDS011;11103;43.788;23.710;2022-09-24T04:20:24;7.90;;;5.03;;
21876;SDS011;11103;43.788;23.710;2022-09-24T04:22:52;6.53;;;5.53;;
21876;SDS011;11103;43.788;23.710;2022-09-24T04:25:19;5.60;;;4.67;;
21876;SDS011;11103;43.788;23.710;2022-09-24T04:27:46;6.97;;;5.60;;
21876;SDS011;11103;43.788;23.710;2022-09-24T04:30:19;6.77;;;5.27;;
21876;SDS011;11103;43.788;23.710;2022-09-24T04:32:45;6.07;;;5.47;;
21876;SDS011;11103;43.788;23.710;2022-09-24T04:35:11;5.73;;;4.63;;
21876;SDS011;11103;43.788;23.710;2022-09-24T04:37:36;5.73;;;5.20;;
21876;SDS011;11103;43.788;23.710;2022-09-24T04:40:05;5.70;;;5.00;;
21876;SDS011;11103;43.788;23.710;2022-09-24T04:42:36;6.50;;;5.50;;
21876;SDS011;11103;43.788;23.710;2022-09-24T04:45:02;10.20;;;5.87;;
21876;SDS011;11103;43.788;23.710;2022-09-24T04:47:29;5.67;;;5.17;;
21876;SDS011;11103;43.788;23.710;2022-09-24T04:49:55;6.97;;;4.70;;
21876;SDS011;11103;43.788;23.710;2022-09-24T04:52:20;5.83;;;4.77;;
21876;SDS011;11103;43.788;23.710;2022-09-24T04:54:53;5.77;;;5.20;;
21876;SDS011;11103;43.788;23.710;2022-09-24T04:57:22;8.40;;;5.60;;
21876;SDS011;11103;43.788;23.710;2022-09-24T04:59:48;12.73;;;7.23;;
21876;SDS011;11103;43.788;23.710;2022-09-24T05:02:13;13.97;;;8.57;;
21876;SDS011;11103;43.788;23.710;2022-09-24T05:04:38;7.13;;;5.70;;
21876;SDS011;11103;43.788;23.710;2022-09-24T05:07:04;6.07;;;5.20;;
21876;SDS011;11103;43.788;23.710;2022-09-24T05:09:30;6.90;;;6.00;;
21876;SDS011;11103;43.788;23.710;2022-09-24T05:11:56;11.73;;;5.93;;
21876;SDS011;11103;43.788;23.710;2022-09-24T05:14:22;11.03;;;6.20;;
21876;SDS011;11103;43.788;23.710;2022-09-24T05:16:48;5.90;;;5.10;;
21876;SDS011;11103;43.788;23.710;2022-09-24T05:19:13;5.50;;;5.00;;
21876;SDS011;11103;43.788;23.710;2022-09-24T05:21:38;5.10;;;4.60;;
21876;SDS011;11103;43.788;23.710;2022-09-24T05:24:04;5.17;;;4.67;;
21876;SDS011;11103;43.788;23.710;2022-09-24T05:26:30;5.47;;;4.90;;
21876;SDS011;11103;43.788;23.710;2022-09-24T05:29:13;5.20;;;4.70;;
21876;SDS011;11103;43.788;23.710;2022-09-24T05:31:39;5.97;;;4.80;;
21876;SDS011;11103;43.788;23.710;2022-09-24T05:34:04;5.43;;;4.93;;
21876;SDS011;11103;43.788;23.710;2022-09-24T05:36:30;4.67;;;4.17;;
21876;SDS011;11103;43.788;23.710;2022-09-24T05:38:55;5.90;;;4.70;;
21876;SDS011;11103;43.788;23.710;2022-09-24T05:41:21;5.63;;;4.20;;
21876;SDS011;11103;43.788;23.710;2022-09-24T05:43:46;6.40;;;4.27;;
21876;SDS011;11103;43.788;23.710;2022-09-24T05:46:13;4.33;;;3.70;;
21876;SDS011;11103;43.788;23.710;2022-09-24T05:48:38;4.40;;;4.00;;
21876;SDS011;11103;43.788;23.710;2022-09-24T05:51:04;5.27;;;4.10;;
21876;SDS011;11103;43.788;23.710;2022-09-24T05:53:30;5.47;;;3.97;;
21876;SDS011;11103;43.788;23.710;2022-09-24T05:55:55;4.07;;;3.67;;
21876;SDS011;11103;43.788;23.710;2022-09-24T05:58:22;4.17;;;3.43;;
21876;SDS011;11103;43.788;23.710;2022-09-24T06:00:47;6.50;;;3.50;;
21876;SDS011;11103;43.788;23.710;2022-09-24T06:03:13;3.53;;;3.23;;
21876;SDS011;11103;43.788;23.710;2022-09-24T06:05:44;3.33;;;3.03;;
21876;SDS011;11103;43.788;23.710;2022-09-24T06:08:10;3.90;;;3.40;;
21876;SDS011;11103;43.788;23.710;2022-09-24T06:10:35;4.03;;;3.57;;
21876;SDS011;11103;43.788;23.710;2022-09-24T06:13:01;4.20;;;3.80;;
21876;SDS011;11103;43.788;23.710;2022-09-24T06:15:27;4.00;;;3.53;;
21876;SDS011;11103;43.788;23.710;2022-09-24T06:17:53;3.70;;;3.40;;
21876;SDS011;11103;43.788;23.710;2022-09-24T06:20:19;3.87;;;3.57;;
21876;SDS011;11103;43.788;23.710;2022-09-24T06:22:46;3.50;;;3.20;;
21876;SDS011;11103;43.788;23.710;2022-09-24T06:25:12;4.63;;;4.00;;
21876;SDS011;11103;43.788;23.710;2022-09-24T06:27:37;3.83;;;3.50;;
21876;SDS011;11103;43.788;23.710;2022-09-24T06:30:03;3.90;;;3.60;;
21876;SDS011;11103;43.788;23.710;2022-09-24T06:32:29;4.20;;;3.80;;
21876;SDS011;11103;43.788;23.710;2022-09-24T06:34:54;6.40;;;4.20;;
21876;SDS011;11103;43.788;23.710;2022-09-24T06:37:20;4.03;;;3.63;;
21876;SDS011;11103;43.788;23.710;2022-09-24T06:39:46;5.57;;;4.50;;
21876;SDS011;11103;43.788;23.710;2022-09-24T06:42:11;4.73;;;3.93;;
21876;SDS011;11103;43.788;23.710;2022-09-24T06:44:37;4.43;;;3.90;;
21876;SDS011;11103;43.788;23.710;2022-09-24T06:47:02;4.43;;;4.00;;
21876;SDS011;11103;43.788;23.710;2022-09-24T06:49:28;7.83;;;4.63;;
21876;SDS011;11103;43.788;23.710;2022-09-24T06:51:53;5.93;;;5.33;;
21876;SDS011;11103;43.788;23.710;2022-09-24T06:54:20;9.03;;;5.13;;
21876;SDS011;11103;43.788;23.710;2022-09-24T06:56:45;5.27;;;4.27;;
21876;SDS011;11103;43.788;23.710;2022-09-24T06:59:11;5.33;;;4.60;;
21876;SDS011;11103;43.788;23.710;2022-09-24T07:01:36;5.77;;;4.70;;
21876;SDS011;11103;43.788;23.710;2022-09-24T07:04:02;5.53;;;4.60;;
21876;SDS011;11103;43.788;23.710;2022-09-24T07:06:27;5.47;;;4.17;;
21876;SDS011;11103;43.788;23.710;2022-09-24T07:09:12;5.37;;;4.50;;
21876;SDS011;11103;43.788;23.710;2022-09-24T07:11:38;8.73;;;4.87;;
21876;SDS011;11103;43.788;23.710;2022-09-24T07:14:04;4.83;;;4.43;;
21876;SDS011;11103;43.788;23.710;2022-09-24T07:16:29;4.23;;;3.83;;
21876;SDS011;11103;43.788;23.710;2022-09-24T07:18:54;4.90;;;4.40;;
21876;SDS011;11103;43.788;23.710;2022-09-24T07:21:20;5.97;;;4.83;;
21876;SDS011;11103;43.788;23.710;2022-09-24T07:23:45;6.77;;;4.40;;
21876;SDS011;11103;43.788;23.710;2022-09-24T07:26:11;8.77;;;4.50;;
21876;SDS011;11103;43.788;23.710;2022-09-24T07:28:37;5.77;;;4.43;;
21876;SDS011;11103;43.788;23.710;2022-09-24T07:31:02;6.10;;;4.00;;
21876;SDS011;11103;43.788;23.710;2022-09-24T07:33:29;4.97;;;4.07;;
21876;SDS011;11103;43.788;23.710;2022-09-24T07:35:55;6.57;;;4.20;;
21876;SDS011;11103;43.788;23.710;2022-09-24T07:38:21;5.47;;;4.40;;
21876;SDS011;11103;43.788;23.710;2022-09-24T07:40:46;8.20;;;4.10;;
21876;SDS011;11103;43.788;23.710;2022-09-24T07:43:12;6.97;;;4.20;;
21876;SDS011;11103;43.788;23.710;2022-09-24T07:45:38;3.97;;;3.57;;
21876;SDS011;11103;43.788;23.710;2022-09-24T07:48:04;6.97;;;3.97;;
21876;SDS011;11103;43.788;23.710;2022-09-24T07:50:31;5.43;;;4.63;;
21876;SDS011;11103;43.788;23.710;2022-09-24T07:52:58;4.13;;;3.70;;
21876;SDS011;11103;43.788;23.710;2022-09-24T07:55:24;4.73;;;4.13;;
21876;SDS011;11103;43.788;23.710;2022-09-24T07:57:51;4.53;;;3.67;;
21876;SDS011;11103;43.788;23.710;2022-09-24T08:00:19;6.23;;;3.70;;
21876;SDS011;11103;43.788;23.710;2022-09-24T08:02:45;7.17;;;3.90;;
21876;SDS011;11103;43.788;23.710;2022-09-24T08:05:12;5.03;;;3.77;;
21876;SDS011;11103;43.788;23.710;2022-09-24T08:07:40;6.03;;;4.00;;
21876;SDS011;11103;43.788;23.710;2022-09-24T08:10:06;4.77;;;4.00;;
21876;SDS011;11103;43.788;23.710;2022-09-24T08:12:32;3.87;;;3.40;;
21876;SDS011;11103;43.788;23.710;2022-09-24T08:14:57;4.43;;;3.97;;
21876;SDS011;11103;43.788;23.710;2022-09-24T08:17:23;6.20;;;4.77;;
21876;SDS011;11103;43.788;23.710;2022-09-24T08:19:48;4.90;;;3.80;;
21876;SDS011;11103;43.788;23.710;2022-09-24T08:22:17;4.33;;;3.90;;
21876;SDS011;11103;43.788;23.710;2022-09-24T08:24:42;4.00;;;3.60;;
21876;SDS011;11103;43.788;23.710;2022-09-24T08:27:08;10.37;;;5.03;;
21876;SDS011;11103;43.788;23.710;2022-09-24T08:29:33;3.80;;;3.50;;
21876;SDS011;11103;43.788;23.710;2022-09-24T08:31:59;3.80;;;3.40;;
21876;SDS011;11103;43.788;23.710;2022-09-24T08:34:25;8.67;;;3.77;;
21876;SDS011;11103;43.788;23.710;2022-09-24T08:36:51;5.23;;;4.50;;
21876;SDS011;11103;43.788;23.710;2022-09-24T08:39:16;5.23;;;4.20;;
21876;SDS011;11103;43.788;23.710;2022-09-24T08:42:01;7.60;;;4.53;;
21876;SDS011;11103;43.788;23.710;2022-09-24T08:50:16;5.93;;;3.80;;
21876;SDS011;11103;43.788;23.710;2022-09-24T08:55:37;6.33;;;4.00;;
21876;SDS011;11103;43.788;23.710;2022-09-24T09:06:18;4.90;;;4.00;;
21876;SDS011;11103;43.788;23.710;2022-09-24T09:11:27;6.23;;;3.60;;
21876;SDS011;11103;43.788;23.710;2022-09-24T09:14:03;7.27;;;6.57;;
21876;SDS011;11103;43.788;23.710;2022-09-24T09:16:47;6.30;;;4.00;;
21876;SDS011;11103;43.788;23.710;2022-09-24T09:19:16;3.77;;;3.40;;
21876;SDS011;11103;43.788;23.710;2022-09-24T09:21:47;4.47;;;3.93;;
21876;SDS011;11103;43.788;23.710;2022-09-24T09:24:21;5.23;;;3.50;;
21876;SDS011;11103;43.788;23.710;2022-09-24T09:26:52;3.83;;;3.53;;
21876;SDS011;11103;43.788;23.710;2022-09-24T09:29:21;5.13;;;3.43;;
21876;SDS011;11103;43.788;23.710;2022-09-24T09:37:39;4.63;;;4.20;;
21876;SDS011;11103;43.788;23.710;2022-09-24T09:40:24;5.70;;;3.73;;
21876;SDS011;11103;43.788;23.710;2022-09-24T09:42:59;5.33;;;4.27;;
21876;SDS011;11103;43.788;23.710;2022-09-24T09:48:16;5.77;;;4.13;;
21876;SDS011;11103;43.788;23.710;2022-09-24T09:50:54;4.70;;;3.83;;
21876;SDS011;11103;43.788;23.710;2022-09-24T09:53:28;6.13;;;3.90;;
21876;SDS011;11103;43.788;23.710;2022-09-24T09:55:58;3.97;;;3.30;;
21876;SDS011;11103;43.788;23.710;2022-09-24T09:58:29;4.20;;;3.40;;
21876;SDS011;11103;43.788;23.710;2022-09-24T10:01:03;4.60;;;3.50;;
21876;SDS011;11103;43.788;23.710;2022-09-24T10:06:11;4.83;;;3.07;;
21876;SDS011;11103;43.788;23.710;2022-09-24T10:08:38;3.87;;;3.47;;
21876;SDS011;11103;43.788;23.710;2022-09-24T10:11:05;3.50;;;3.20;;
21876;SDS011;11103;43.788;23.710;2022-09-24T10:13:31;3.90;;;3.43;;
21876;SDS011;11103;43.788;23.710;2022-09-24T10:15:58;4.10;;;3.50;;
21876;SDS011;11103;43.788;23.710;2022-09-24T10:18:30;3.40;;;3.10;;
21876;SDS011;11103;43.788;23.710;2022-09-24T10:21:05;4.70;;;3.57;;
21876;SDS011;11103;43.788;23.710;2022-09-24T10:23:41;4.53;;;3.73;;
21876;SDS011;11103;43.788;23.710;2022-09-24T10:26:10;4.40;;;3.40;;
21876;SDS011;11103;43.788;23.710;2022-09-24T10:28:38;4.73;;;3.30;;
21876;SDS011;11103;43.788;23.710;2022-09-24T10:31:28;3.63;;;3.27;;
21876;SDS011;11103;43.788;23.710;2022-09-24T10:33:56;3.43;;;3.03;;
21876;SDS011;11103;43.788;23.710;2022-09-24T10:36:24;3.77;;;3.30;;
21876;SDS011;11103;43.788;23.710;2022-09-24T10:39:02;3.67;;;3.23;;
21876;SDS011;11103;43.788;23.710;2022-09-24T10:41:33;3.70;;;3.40;;
21876;SDS011;11103;43.788;23.710;2022-09-24T10:44:09;3.57;;;3.20;;
21876;SDS011;11103;43.788;23.710;2022-09-24T10:52:06;3.27;;;2.97;;
21876;SDS011;11103;43.788;23.710;2022-09-24T11:00:36;35.53;;;16.53;;
21876;SDS011;11103;43.788;23.710;2022-09-24T11:15:07;6.53;;;3.20;;
21876;SDS011;11103;43.788;23.710;2022-09-24T11:18:00;3.50;;;3.20;;
21876;SDS011;11103;43.788;23.710;2022-09-24T11:20:35;5.67;;;3.57;;
21876;SDS011;11103;43.788;23.710;2022-09-24T11:23:14;4.37;;;3.10;;
21876;SDS011;11103;43.788;23.710;2022-09-24T11:34:43;5.73;;;3.70;;
21876;SDS011;11103;43.788;23.710;2022-09-24T11:37:21;4.70;;;3.40;;
21876;SDS011;11103;43.788;23.710;2022-09-24T11:39:59;4.90;;;3.33;;
21876;SDS011;11103;43.788;23.710;2022-09-24T11:42:32;3.97;;;3.57;;
21876;SDS011;11103;43.788;23.710;2022-09-24T11:45:03;4.50;;;3.50;;
21876;SDS011;11103;43.788;23.710;2022-09-24T11:55:50;3.83;;;3.43;;
21876;SDS011;11103;43.788;23.710;2022-09-24T11:58:26;3.77;;;3.43;;
21876;SDS011;11103;43.788;23.710;2022-09-24T12:00:56;4.03;;;3.63;;
21876;SDS011;11103;43.788;23.710;2022-09-24T12:06:10;10.23;;;4.20;;
21876;SDS011;11103;43.788;23.710;2022-09-24T12:08:55;6.37;;;3.67;;
21876;SDS011;11103;43.788;23.710;2022-09-24T12:11:29;4.63;;;3.80;;
21876;SDS011;11103;43.788;23.710;2022-09-24T12:14:02;4.00;;;3.60;;
21876;SDS011;11103;43.788;23.710;2022-09-24T12:16:36;4.37;;;3.57;;
21876;SDS011;11103;43.788;23.710;2022-09-24T12:19:23;4.43;;;4.03;;
21876;SDS011;11103;43.788;23.710;2022-09-24T12:21:53;7.30;;;4.40;;
21876;SDS011;11103;43.788;23.710;2022-09-24T12:27:13;4.93;;;3.97;;
21876;SDS011;11103;43.788;23.710;2022-09-24T12:32:49;8.50;;;4.27;;
21876;SDS011;11103;43.788;23.710;2022-09-24T12:35:30;5.03;;;3.80;;
21876;SDS011;11103;43.788;23.710;2022-09-24T12:38:07;5.27;;;4.70;;
21876;SDS011;11103;43.788;23.710;2022-09-24T12:43:32;6.97;;;3.63;;
21876;SDS011;11103;43.788;23.710;2022-09-24T12:46:04;4.33;;;3.80;;
21876;SDS011;11103;43.788;23.710;2022-09-24T12:51:10;4.47;;;3.40;;
21876;SDS011;11103;43.788;23.710;2022-09-24T12:53:37;5.90;;;3.90;;
21876;SDS011;11103;43.788;23.710;2022-09-24T12:56:07;10.80;;;5.50;;
21876;SDS011;11103;43.788;23.710;2022-09-24T13:06:39;5.30;;;4.40;;
21876;SDS011;11103;43.788;23.710;2022-09-24T13:15:03;5.10;;;3.87;;
21876;SDS011;11103;43.788;23.710;2022-09-24T13:17:32;6.27;;;3.87;;
21876;SDS011;11103;43.788;23.710;2022-09-24T13:20:15;4.10;;;3.60;;
21876;SDS011;11103;43.788;23.710;2022-09-24T13:22:56;6.43;;;3.70;;
21876;SDS011;11103;43.788;23.710;2022-09-24T13:25:24;8.43;;;4.33;;
21876;SDS011;11103;43.788;23.710;2022-09-24T13:27:58;5.10;;;3.63;;
21876;SDS011;11103;43.788;23.710;2022-09-24T13:35:46;4.03;;;3.53;;
21876;SDS011;11103;43.788;23.710;2022-09-24T13:38:27;7.10;;;3.37;;
21876;SDS011;11103;43.788;23.710;2022-09-24T13:41:11;5.50;;;3.57;;
21876;SDS011;11103;43.788;23.710;2022-09-24T13:43:51;4.13;;;3.30;;
21876;SDS011;11103;43.788;23.710;2022-09-24T13:46:23;5.00;;;3.70;;
21876;SDS011;11103;43.788;23.710;2022-09-24T13:48:50;4.30;;;3.90;;
21876;SDS011;11103;43.788;23.710;2022-09-24T13:51:20;5.07;;;3.50;;
21876;SDS011;11103;43.788;23.710;2022-09-24T13:53:52;3.87;;;3.53;;
21876;SDS011;11103;43.788;23.710;2022-09-24T13:56:25;3.97;;;3.57;;
21876;SDS011;11103;43.788;23.710;2022-09-24T13:58:51;6.50;;;3.30;;
21876;SDS011;11103;43.788;23.710;2022-09-24T14:01:28;4.80;;;3.00;;
21876;SDS011;11103;43.788;23.710;2022-09-24T14:04:13;5.27;;;3.77;;
21876;SDS011;11103;43.788;23.710;2022-09-24T14:06:53;5.50;;;3.10;;
21876;SDS011;11103;43.788;23.710;2022-09-24T14:11:54;6.37;;;3.47;;
21876;SDS011;11103;43.788;23.710;2022-09-24T14:14:23;6.13;;;3.63;;
21876;SDS011;11103;43.788;23.710;2022-09-24T14:16:52;5.27;;;3.60;;
21876;SDS011;11103;43.788;23.710;2022-09-24T14:19:21;3.60;;;3.30;;
21876;SDS011;11103;43.788;23.710;2022-09-24T14:29:31;7.20;;;3.70;;
21876;SDS011;11103;43.788;23.710;2022-09-24T14:32:04;8.93;;;3.70;;
21876;SDS011;11103;43.788;23.710;2022-09-24T14:37:07;13.60;;;3.90;;
21876;SDS011;11103;43.788;23.710;2022-09-24T14:39:41;5.67;;;3.80;;
21876;SDS011;11103;43.788;23.710;2022-09-24T14:42:10;5.80;;;4.07;;
21876;SDS011;11103;43.788;23.710;2022-09-24T14:44:43;7.63;;;3.57;;
21876;SDS011;11103;43.788;23.710;2022-09-24T14:47:26;4.33;;;3.90;;
21876;SDS011;11103;43.788;23.710;2022-09-24T14:49:53;5.80;;;4.73;;
21876;SDS011;11103;43.788;23.710;2022-09-24T14:52:32;5.90;;;4.10;;
21876;SDS011;11103;43.788;23.710;2022-09-24T14:57:42;7.03;;;4.03;;
21876;SDS011;11103;43.788;23.710;2022-09-24T15:00:19;8.67;;;4.50;;
21876;SDS011;11103;43.788;23.710;2022-09-24T15:05:24;4.40;;;3.87;;
21876;SDS011;11103;43.788;23.710;2022-09-24T15:07:53;6.17;;;4.27;;
21876;SDS011;11103;43.788;23.710;2022-09-24T15:13:31;8.93;;;4.90;;
21876;SDS011;11103;43.788;23.710;2022-09-24T15:21:30;11.47;;;6.43;;
21876;SDS011;11103;43.788;23.710;2022-09-24T15:23:55;12.13;;;5.90;;
21876;SDS011;11103;43.788;23.710;2022-09-24T15:26:21;7.83;;;4.87;;
21876;SDS011;11103;43.788;23.710;2022-09-24T15:28:50;10.07;;;4.00;;
21876;SDS011;11103;43.788;23.710;2022-09-24T15:31:16;14.03;;;6.40;;
21876;SDS011;11103;43.788;23.710;2022-09-24T15:33:41;7.63;;;4.57;;
21876;SDS011;11103;43.788;23.710;2022-09-24T15:36:07;4.30;;;3.90;;
21876;SDS011;11103;43.788;23.710;2022-09-24T15:38:34;5.60;;;3.50;;
21876;SDS011;11103;43.788;23.710;2022-09-24T15:40:59;11.63;;;4.27;;
21876;SDS011;11103;43.788;23.710;2022-09-24T15:43:25;7.63;;;4.13;;
21876;SDS011;11103;43.788;23.710;2022-09-24T15:45:51;6.07;;;4.70;;
21876;SDS011;11103;43.788;23.710;2022-09-24T15:48:16;10.63;;;4.80;;
21876;SDS011;11103;43.788;23.710;2022-09-24T15:50:43;4.47;;;3.83;;
21876;SDS011;11103;43.788;23.710;2022-09-24T15:53:16;7.33;;;4.20;;
21876;SDS011;11103;43.788;23.710;2022-09-24T15:55:46;7.67;;;4.30;;
21876;SDS011;11103;43.788;23.710;2022-09-24T15:58:14;5.33;;;4.10;;
21876;SDS011;11103;43.788;23.710;2022-09-24T16:00:40;5.87;;;4.20;;
21876;SDS011;11103;43.788;23.710;2022-09-24T16:03:08;9.50;;;4.70;;
21876;SDS011;11103;43.788;23.710;2022-09-24T16:05:53;13.73;;;5.00;;
21876;SDS011;11103;43.788;23.710;2022-09-24T16:08:20;13.80;;;5.63;;
21876;SDS011;11103;43.788;23.710;2022-09-24T16:10:45;13.23;;;6.03;;
21876;SDS011;11103;43.788;23.710;2022-09-24T16:13:11;10.80;;;6.00;;
21876;SDS011;11103;43.788;23.710;2022-09-24T16:15:46;16.60;;;6.80;;
21876;SDS011;11103;43.788;23.710;2022-09-24T16:18:13;12.97;;;6.37;;
21876;SDS011;11103;43.788;23.710;2022-09-24T16:20:41;14.07;;;7.13;;
21876;SDS011;11103;43.788;23.710;2022-09-24T16:23:13;13.83;;;7.47;;
21876;SDS011;11103;43.788;23.710;2022-09-24T16:25:41;11.43;;;7.10;;
21876;SDS011;11103;43.788;23.710;2022-09-24T16:28:17;16.87;;;6.83;;
21876;SDS011;11103;43.788;23.710;2022-09-24T16:30:45;14.47;;;6.47;;
21876;SDS011;11103;43.788;23.710;2022-09-24T16:33:10;14.93;;;6.60;;
21876;SDS011;11103;43.788;23.710;2022-09-24T16:35:36;10.53;;;5.50;;
21876;SDS011;11103;43.788;23.710;2022-09-24T16:38:01;8.57;;;6.43;;
21876;SDS011;11103;43.788;23.710;2022-09-24T16:40:27;15.53;;;6.00;;
21876;SDS011;11103;43.788;23.710;2022-09-24T16:42:52;6.63;;;5.30;;
21876;SDS011;11103;43.788;23.710;2022-09-24T16:45:18;9.90;;;6.10;;
21876;SDS011;11103;43.788;23.710;2022-09-24T16:47:44;12.63;;;6.33;;
21876;SDS011;11103;43.788;23.710;2022-09-24T16:50:09;8.97;;;5.93;;
21876;SDS011;11103;43.788;23.710;2022-09-24T16:52:36;31.23;;;11.63;;
21876;SDS011;11103;43.788;23.710;2022-09-24T16:55:01;37.93;;;16.13;;
21876;SDS011;11103;43.788;23.710;2022-09-24T16:57:27;49.43;;;21.57;;
21876;SDS011;11103;43.788;23.710;2022-09-24T16:59:52;94.77;;;38.17;;
21876;SDS011;11103;43.788;23.710;2022-09-24T17:02:18;124.33;;;50.07;;
21876;SDS011;11103;43.788;23.710;2022-09-24T17:04:44;97.07;;;40.03;;
21876;SDS011;11103;43.788;23.710;2022-09-24T17:07:10;60.33;;;24.83;;
21876;SDS011;11103;43.788;23.710;2022-09-24T17:09:37;52.90;;;23.17;;
21876;SDS011;11103;43.788;23.710;2022-09-24T17:12:22;43.77;;;19.90;;
21876;SDS011;11103;43.788;23.710;2022-09-24T17:14:47;47.80;;;18.57;;
21876;SDS011;11103;43.788;23.710;2022-09-24T17:17:13;43.67;;;19.37;;
21876;SDS011;11103;43.788;23.710;2022-09-24T17:19:38;32.20;;;14.07;;
21876;SDS011;11103;43.788;23.710;2022-09-24T17:22:04;33.13;;;13.30;;
21876;SDS011;11103;43.788;23.710;2022-09-24T17:24:29;26.20;;;12.17;;